sensor_id;sensor_type;location;lat;lon;timestamp;P1;durP1;ratioP1;P2;durP2;ratioP2
31652;SDS011;18261;53.648;9.910;2022-08-01T00:00:44;15.48;;;11.13;;
31652;SDS011;18261;53.648;9.910;2022-08-01T00:03:10;15.65;;;11.18;;
31652;SDS011;18261;53.648;9.910;2022-08-01T00:05:36;17.67;;;10.70;;
31652;SDS011;18261;53.648;9.910;2022-08-01T00:08:02;14.48;;;11.38;;
31652;SDS011;18261;53.648;9.910;2022-08-01T00:10:28;16.77;;;11.60;;
31652;SDS011;18261;53.648;9.910;2022-08-01T00:12:54;15.40;;;11.27;;
31652;SDS011;18261;53.648;9.910;2022-08-01T00:15:20;14.52;;;11.20;;
31652;SDS011;18261;53.648;9.910;2022-08-01T00:17:46;14.23;;;10.68;;
31652;SDS011;18261;53.648;9.910;2022-08-01T00:20:13;17.52;;;12.88;;
31652;SDS011;18261;53.648;9.910;2022-08-01T00:22:39;19.17;;;11.98;;
31652;SDS011;18261;53.648;9.910;2022-08-01T00:25:05;19.35;;;12.27;;
31652;SDS011;18261;53.648;9.910;2022-08-01T00:27:32;16.10;;;11.00;;
31652;SDS011;18261;53.648;9.910;2022-08-01T00:29:58;17.25;;;13.23;;
31652;SDS011;18261;53.648;9.910;2022-08-01T00:32:24;18.10;;;12.07;;
31652;SDS011;18261;53.648;9.910;2022-08-01T00:34:50;20.17;;;13.23;;
31652;SDS011;18261;53.648;9.910;2022-08-01T00:37:16;20.23;;;12.88;;
31652;SDS011;18261;53.648;9.910;2022-08-01T00:39:42;18.25;;;13.20;;
31652;SDS011;18261;53.648;9.910;2022-08-01T00:42:09;23.83;;;14.70;;
31652;SDS011;18261;53.648;9.910;2022-08-01T00:44:35;22.50;;;13.50;;
31652;SDS011;18261;53.648;9.910;2022-08-01T00:47:02;19.05;;;12.30;;
31652;SDS011;18261;53.648;9.910;2022-08-01T00:49:28;20.92;;;13.25;;
31652;SDS011;18261;53.648;9.910;2022-08-01T00:51:54;17.58;;;13.27;;
31652;SDS011;18261;53.648;9.910;2022-08-01T00:54:20;18.27;;;11.50;;
31652;SDS011;18261;53.648;9.910;2022-08-01T00:56:46;21.42;;;12.35;;
31652;SDS011;18261;53.648;9.910;2022-08-01T00:59:13;17.80;;;12.23;;
31652;SDS011;18261;53.648;9.910;2022-08-01T01:01:39;20.48;;;12.85;;
31652;SDS011;18261;53.648;9.910;2022-08-01T01:04:05;17.48;;;11.98;;
31652;SDS011;18261;53.648;9.910;2022-08-01T01:06:41;17.70;;;12.27;;
31652;SDS011;18261;53.648;9.910;2022-08-01T01:14:41;17.48;;;10.77;;
31652;SDS011;18261;53.648;9.910;2022-08-01T01:17:11;22.42;;;13.10;;
31652;SDS011;18261;53.648;9.910;2022-08-01T01:19:38;20.30;;;12.25;;
31652;SDS011;18261;53.648;9.910;2022-08-01T01:24:56;19.50;;;13.07;;
31652;SDS011;18261;53.648;9.910;2022-08-01T01:27:25;17.92;;;11.65;;
31652;SDS011;18261;53.648;9.910;2022-08-01T01:29:55;18.23;;;11.10;;
31652;SDS011;18261;53.648;9.910;2022-08-01T01:35:07;19.23;;;12.05;;
31652;SDS011;18261;53.648;9.910;2022-08-01T01:37:34;19.90;;;11.50;;
31652;SDS011;18261;53.648;9.910;2022-08-01T01:40:02;20.10;;;12.07;;
31652;SDS011;18261;53.648;9.910;2022-08-01T01:42:29;19.95;;;13.15;;
31652;SDS011;18261;53.648;9.910;2022-08-01T01:44:55;18.85;;;11.55;;
31652;SDS011;18261;53.648;9.910;2022-08-01T01:47:22;21.92;;;11.88;;
31652;SDS011;18261;53.648;9.910;2022-08-01T01:49:48;21.98;;;11.45;;
31652;SDS011;18261;53.648;9.910;2022-08-01T01:52:16;22.60;;;13.57;;
31652;SDS011;18261;53.648;9.910;2022-08-01T01:54:44;20.40;;;12.93;;
31652;SDS011;18261;53.648;9.910;2022-08-01T01:57:11;18.38;;;10.90;;
31652;SDS011;18261;53.648;9.910;2022-08-01T01:59:38;17.30;;;10.57;;
31652;SDS011;18261;53.648;9.910;2022-08-01T02:02:05;19.25;;;10.80;;
31652;SDS011;18261;53.648;9.910;2022-08-01T02:04:32;27.35;;;12.05;;
31652;SDS011;18261;53.648;9.910;2022-08-01T02:06:58;20.58;;;9.50;;
31652;SDS011;18261;53.648;9.910;2022-08-01T02:09:26;20.58;;;10.40;;
31652;SDS011;18261;53.648;9.910;2022-08-01T02:11:53;16.73;;;9.18;;
31652;SDS011;18261;53.648;9.910;2022-08-01T02:14:19;11.82;;;8.02;;
31652;SDS011;18261;53.648;9.910;2022-08-01T02:16:47;15.60;;;8.50;;
31652;SDS011;18261;53.648;9.910;2022-08-01T02:19:14;13.70;;;8.73;;
31652;SDS011;18261;53.648;9.910;2022-08-01T02:21:46;14.40;;;8.98;;
31652;SDS011;18261;53.648;9.910;2022-08-01T02:24:13;20.40;;;12.10;;
31652;SDS011;18261;53.648;9.910;2022-08-01T02:26:41;14.93;;;9.77;;
31652;SDS011;18261;53.648;9.910;2022-08-01T02:29:08;17.55;;;9.73;;
31652;SDS011;18261;53.648;9.910;2022-08-01T02:31:38;20.52;;;8.55;;
31652;SDS011;18261;53.648;9.910;2022-08-01T02:34:06;12.52;;;7.70;;
31652;SDS011;18261;53.648;9.910;2022-08-01T02:36:33;14.13;;;8.15;;
31652;SDS011;18261;53.648;9.910;2022-08-01T02:39:00;15.05;;;8.18;;
31652;SDS011;18261;53.648;9.910;2022-08-01T02:41:27;11.25;;;6.82;;
31652;SDS011;18261;53.648;9.910;2022-08-01T02:43:56;16.17;;;8.70;;
31652;SDS011;18261;53.648;9.910;2022-08-01T02:46:25;16.83;;;7.05;;
31652;SDS011;18261;53.648;9.910;2022-08-01T02:48:53;18.45;;;8.00;;
31652;SDS011;18261;53.648;9.910;2022-08-01T02:51:21;16.73;;;7.85;;
31652;SDS011;18261;53.648;9.910;2022-08-01T02:53:49;12.57;;;7.10;;
31652;SDS011;18261;53.648;9.910;2022-08-01T02:56:16;14.40;;;7.07;;
31652;SDS011;18261;53.648;9.910;2022-08-01T02:58:43;22.25;;;7.63;;
31652;SDS011;18261;53.648;9.910;2022-08-01T03:01:10;10.73;;;6.93;;
31652;SDS011;18261;53.648;9.910;2022-08-01T03:03:36;15.07;;;6.57;;
31652;SDS011;18261;53.648;9.910;2022-08-01T03:06:02;19.25;;;7.18;;
31652;SDS011;18261;53.648;9.910;2022-08-01T03:08:29;15.80;;;7.07;;
31652;SDS011;18261;53.648;9.910;2022-08-01T03:10:56;11.57;;;6.40;;
31652;SDS011;18261;53.648;9.910;2022-08-01T03:13:23;12.20;;;6.05;;
31652;SDS011;18261;53.648;9.910;2022-08-01T03:15:50;9.90;;;5.90;;
31652;SDS011;18261;53.648;9.910;2022-08-01T03:18:17;10.70;;;5.63;;
31652;SDS011;18261;53.648;9.910;2022-08-01T03:20:43;13.27;;;6.13;;
31652;SDS011;18261;53.648;9.910;2022-08-01T03:23:11;10.68;;;6.20;;
31652;SDS011;18261;53.648;9.910;2022-08-01T03:25:38;10.05;;;5.43;;
31652;SDS011;18261;53.648;9.910;2022-08-01T03:28:06;9.13;;;5.10;;
31652;SDS011;18261;53.648;9.910;2022-08-01T03:30:32;12.27;;;5.38;;
31652;SDS011;18261;53.648;9.910;2022-08-01T03:32:58;8.82;;;5.18;;
31652;SDS011;18261;53.648;9.910;2022-08-01T03:35:30;11.35;;;4.85;;
31652;SDS011;18261;53.648;9.910;2022-08-01T03:37:56;10.35;;;4.70;;
31652;SDS011;18261;53.648;9.910;2022-08-01T03:40:28;9.27;;;5.00;;
31652;SDS011;18261;53.648;9.910;2022-08-01T03:42:58;7.05;;;4.72;;
31652;SDS011;18261;53.648;9.910;2022-08-01T03:45:26;10.18;;;4.63;;
31652;SDS011;18261;53.648;9.910;2022-08-01T03:47:55;7.97;;;4.75;;
31652;SDS011;18261;53.648;9.910;2022-08-01T03:50:24;9.38;;;4.68;;
31652;SDS011;18261;53.648;9.910;2022-08-01T03:52:50;9.00;;;4.70;;
31652;SDS011;18261;53.648;9.910;2022-08-01T03:55:17;8.88;;;4.45;;
31652;SDS011;18261;53.648;9.910;2022-08-01T03:57:44;8.52;;;4.13;;
31652;SDS011;18261;53.648;9.910;2022-08-01T04:00:11;8.48;;;4.40;;
31652;SDS011;18261;53.648;9.910;2022-08-01T04:02:37;9.43;;;3.75;;
31652;SDS011;18261;53.648;9.910;2022-08-01T04:05:04;7.05;;;3.63;;
31652;SDS011;18261;53.648;9.910;2022-08-01T04:07:31;8.27;;;4.18;;
31652;SDS011;18261;53.648;9.910;2022-08-01T04:09:57;6.60;;;4.18;;
31652;SDS011;18261;53.648;9.910;2022-08-01T04:12:24;5.28;;;3.22;;
31652;SDS011;18261;53.648;9.910;2022-08-01T04:14:50;7.82;;;4.18;;
31652;SDS011;18261;53.648;9.910;2022-08-01T04:17:16;9.60;;;4.35;;
31652;SDS011;18261;53.648;9.910;2022-08-01T04:19:42;6.82;;;4.20;;
31652;SDS011;18261;53.648;9.910;2022-08-01T04:22:09;5.93;;;3.35;;
31652;SDS011;18261;53.648;9.910;2022-08-01T04:24:36;10.95;;;4.82;;
31652;SDS011;18261;53.648;9.910;2022-08-01T04:27:03;6.53;;;3.75;;
31652;SDS011;18261;53.648;9.910;2022-08-01T04:29:31;6.25;;;4.30;;
31652;SDS011;18261;53.648;9.910;2022-08-01T04:31:59;12.45;;;4.68;;
31652;SDS011;18261;53.648;9.910;2022-08-01T04:34:26;7.75;;;4.32;;
31652;SDS011;18261;53.648;9.910;2022-08-01T04:36:54;6.28;;;4.25;;
31652;SDS011;18261;53.648;9.910;2022-08-01T04:39:21;8.50;;;3.90;;
31652;SDS011;18261;53.648;9.910;2022-08-01T04:41:49;13.75;;;4.20;;
31652;SDS011;18261;53.648;9.910;2022-08-01T04:44:15;9.85;;;4.00;;
31652;SDS011;18261;53.648;9.910;2022-08-01T04:46:41;8.52;;;3.15;;
31652;SDS011;18261;53.648;9.910;2022-08-01T04:49:08;6.07;;;2.67;;
31652;SDS011;18261;53.648;9.910;2022-08-01T04:51:34;5.88;;;2.90;;
31652;SDS011;18261;53.648;9.910;2022-08-01T04:54:00;7.97;;;2.78;;
31652;SDS011;18261;53.648;9.910;2022-08-01T04:56:26;3.28;;;2.60;;
31652;SDS011;18261;53.648;9.910;2022-08-01T04:58:52;4.28;;;2.30;;
31652;SDS011;18261;53.648;9.910;2022-08-01T05:01:37;5.28;;;2.67;;
31652;SDS011;18261;53.648;9.910;2022-08-01T05:04:03;5.72;;;2.38;;
31652;SDS011;18261;53.648;9.910;2022-08-01T05:06:29;2.85;;;2.10;;
31652;SDS011;18261;53.648;9.910;2022-08-01T05:08:55;8.90;;;2.42;;
31652;SDS011;18261;53.648;9.910;2022-08-01T05:11:21;3.65;;;2.00;;
31652;SDS011;18261;53.648;9.910;2022-08-01T05:13:47;6.30;;;2.20;;
31652;SDS011;18261;53.648;9.910;2022-08-01T05:16:13;3.65;;;2.20;;
31652;SDS011;18261;53.648;9.910;2022-08-01T05:18:39;8.75;;;2.38;;
31652;SDS011;18261;53.648;9.910;2022-08-01T05:21:05;10.45;;;3.20;;
31652;SDS011;18261;53.648;9.910;2022-08-01T05:23:32;7.88;;;2.22;;
31652;SDS011;18261;53.648;9.910;2022-08-01T05:25:58;9.23;;;2.95;;
31652;SDS011;18261;53.648;9.910;2022-08-01T05:28:24;5.50;;;2.15;;
31652;SDS011;18261;53.648;9.910;2022-08-01T05:30:50;10.30;;;2.63;;
31652;SDS011;18261;53.648;9.910;2022-08-01T05:33:19;7.90;;;2.75;;
31652;SDS011;18261;53.648;9.910;2022-08-01T05:35:46;3.35;;;2.10;;
31652;SDS011;18261;53.648;9.910;2022-08-01T05:38:12;7.90;;;2.53;;
31652;SDS011;18261;53.648;9.910;2022-08-01T05:40:38;8.20;;;3.38;;
31652;SDS011;18261;53.648;9.910;2022-08-01T05:43:04;5.75;;;2.53;;
31652;SDS011;18261;53.648;9.910;2022-08-01T05:45:30;6.75;;;2.88;;
31652;SDS011;18261;53.648;9.910;2022-08-01T05:47:56;9.38;;;2.60;;
31652;SDS011;18261;53.648;9.910;2022-08-01T05:50:22;9.90;;;3.08;;
31652;SDS011;18261;53.648;9.910;2022-08-01T05:52:48;7.72;;;3.25;;
31652;SDS011;18261;53.648;9.910;2022-08-01T05:55:14;12.27;;;3.58;;
31652;SDS011;18261;53.648;9.910;2022-08-01T05:57:40;12.05;;;3.35;;
31652;SDS011;18261;53.648;9.910;2022-08-01T06:00:06;18.88;;;3.60;;
31652;SDS011;18261;53.648;9.910;2022-08-01T06:02:32;10.13;;;3.05;;
31652;SDS011;18261;53.648;9.910;2022-08-01T06:04:58;10.90;;;3.00;;
31652;SDS011;18261;53.648;9.910;2022-08-01T06:07:24;14.43;;;3.45;;
31652;SDS011;18261;53.648;9.910;2022-08-01T06:09:50;13.85;;;3.42;;
31652;SDS011;18261;53.648;9.910;2022-08-01T06:12:16;13.07;;;3.40;;
31652;SDS011;18261;53.648;9.910;2022-08-01T06:14:42;17.27;;;3.15;;
31652;SDS011;18261;53.648;9.910;2022-08-01T06:17:08;15.93;;;3.42;;
31652;SDS011;18261;53.648;9.910;2022-08-01T06:19:34;17.85;;;4.10;;
31652;SDS011;18261;53.648;9.910;2022-08-01T06:22:00;18.52;;;4.63;;
31652;SDS011;18261;53.648;9.910;2022-08-01T06:24:26;18.65;;;4.63;;
31652;SDS011;18261;53.648;9.910;2022-08-01T06:26:52;15.68;;;4.22;;
31652;SDS011;18261;53.648;9.910;2022-08-01T06:29:17;21.33;;;5.43;;
31652;SDS011;18261;53.648;9.910;2022-08-01T06:31:44;20.92;;;4.55;;
31652;SDS011;18261;53.648;9.910;2022-08-01T06:34:10;22.42;;;5.60;;
31652;SDS011;18261;53.648;9.910;2022-08-01T06:36:36;18.52;;;5.30;;
31652;SDS011;18261;53.648;9.910;2022-08-01T06:39:02;19.48;;;6.25;;
31652;SDS011;18261;53.648;9.910;2022-08-01T06:41:28;17.90;;;5.90;;
31652;SDS011;18261;53.648;9.910;2022-08-01T06:43:54;20.83;;;5.85;;
31652;SDS011;18261;53.648;9.910;2022-08-01T06:46:19;20.83;;;6.00;;
31652;SDS011;18261;53.648;9.910;2022-08-01T06:48:45;22.73;;;6.30;;
31652;SDS011;18261;53.648;9.910;2022-08-01T06:51:11;17.38;;;5.93;;
31652;SDS011;18261;53.648;9.910;2022-08-01T06:53:38;23.30;;;5.80;;
31652;SDS011;18261;53.648;9.910;2022-08-01T06:56:05;26.45;;;6.43;;
31652;SDS011;18261;53.648;9.910;2022-08-01T06:58:31;24.88;;;5.82;;
31652;SDS011;18261;53.648;9.910;2022-08-01T07:00:58;24.75;;;5.47;;
31652;SDS011;18261;53.648;9.910;2022-08-01T07:03:24;19.38;;;4.70;;
31652;SDS011;18261;53.648;9.910;2022-08-01T07:05:51;36.03;;;6.30;;
31652;SDS011;18261;53.648;9.910;2022-08-01T07:08:17;24.23;;;5.72;;
31652;SDS011;18261;53.648;9.910;2022-08-01T07:10:43;26.63;;;7.53;;
31652;SDS011;18261;53.648;9.910;2022-08-01T07:13:09;29.02;;;7.57;;
31652;SDS011;18261;53.648;9.910;2022-08-01T07:15:34;30.30;;;7.97;;
31652;SDS011;18261;53.648;9.910;2022-08-01T07:18:00;24.13;;;6.78;;
31652;SDS011;18261;53.648;9.910;2022-08-01T07:20:28;30.98;;;7.20;;
31652;SDS011;18261;53.648;9.910;2022-08-01T07:22:54;22.58;;;6.85;;
31652;SDS011;18261;53.648;9.910;2022-08-01T07:25:20;29.73;;;6.78;;
31652;SDS011;18261;53.648;9.910;2022-08-01T07:27:46;26.70;;;6.88;;
31652;SDS011;18261;53.648;9.910;2022-08-01T07:30:12;32.85;;;6.82;;
31652;SDS011;18261;53.648;9.910;2022-08-01T07:32:38;23.45;;;5.53;;
31652;SDS011;18261;53.648;9.910;2022-08-01T07:35:04;37.38;;;5.70;;
31652;SDS011;18261;53.648;9.910;2022-08-01T07:37:30;22.85;;;5.93;;
31652;SDS011;18261;53.648;9.910;2022-08-01T07:39:56;16.38;;;4.85;;
31652;SDS011;18261;53.648;9.910;2022-08-01T07:42:22;18.38;;;3.92;;
31652;SDS011;18261;53.648;9.910;2022-08-01T07:44:48;27.40;;;3.95;;
31652;SDS011;18261;53.648;9.910;2022-08-01T07:47:14;25.67;;;4.35;;
31652;SDS011;18261;53.648;9.910;2022-08-01T07:49:40;30.20;;;4.95;;
31652;SDS011;18261;53.648;9.910;2022-08-01T07:52:07;21.25;;;3.42;;
31652;SDS011;18261;53.648;9.910;2022-08-01T07:54:33;26.77;;;3.90;;
31652;SDS011;18261;53.648;9.910;2022-08-01T07:56:59;23.90;;;4.20;;
31652;SDS011;18261;53.648;9.910;2022-08-01T07:59:26;23.92;;;3.60;;
31652;SDS011;18261;53.648;9.910;2022-08-01T08:01:52;22.73;;;3.67;;
31652;SDS011;18261;53.648;9.910;2022-08-01T08:04:18;22.17;;;4.05;;
31652;SDS011;18261;53.648;9.910;2022-08-01T08:06:44;25.67;;;3.33;;
31652;SDS011;18261;53.648;9.910;2022-08-01T08:09:12;17.70;;;3.13;;
31652;SDS011;18261;53.648;9.910;2022-08-01T08:11:38;18.55;;;3.58;;
31652;SDS011;18261;53.648;9.910;2022-08-01T08:14:04;21.25;;;3.20;;
31652;SDS011;18261;53.648;9.910;2022-08-01T08:16:30;17.48;;;3.45;;
31652;SDS011;18261;53.648;9.910;2022-08-01T08:18:56;18.55;;;3.33;;
31652;SDS011;18261;53.648;9.910;2022-08-01T08:21:22;26.20;;;4.22;;
31652;SDS011;18261;53.648;9.910;2022-08-01T08:23:48;19.25;;;3.80;;
31652;SDS011;18261;53.648;9.910;2022-08-01T08:26:32;35.63;;;15.38;;
31652;SDS011;18261;53.648;9.910;2022-08-01T08:28:58;20.92;;;5.30;;
31652;SDS011;18261;53.648;9.910;2022-08-01T08:31:24;26.20;;;7.22;;
31652;SDS011;18261;53.648;9.910;2022-08-01T08:33:50;15.30;;;3.05;;
31652;SDS011;18261;53.648;9.910;2022-08-01T08:36:16;17.35;;;5.10;;
31652;SDS011;18261;53.648;9.910;2022-08-01T08:38:42;30.70;;;8.57;;
31652;SDS011;18261;53.648;9.910;2022-08-01T08:41:08;23.77;;;5.85;;
31652;SDS011;18261;53.648;9.910;2022-08-01T08:43:35;14.10;;;3.67;;
31652;SDS011;18261;53.648;9.910;2022-08-01T08:46:01;24.70;;;5.68;;
31652;SDS011;18261;53.648;9.910;2022-08-01T08:48:27;22.35;;;3.53;;
31652;SDS011;18261;53.648;9.910;2022-08-01T08:50:53;18.67;;;4.00;;
31652;SDS011;18261;53.648;9.910;2022-08-01T08:53:20;21.17;;;4.13;;
31652;SDS011;18261;53.648;9.910;2022-08-01T08:55:46;30.10;;;7.00;;
31652;SDS011;18261;53.648;9.910;2022-08-01T08:58:13;21.27;;;4.18;;
31652;SDS011;18261;53.648;9.910;2022-08-01T09:00:40;20.63;;;3.35;;
31652;SDS011;18261;53.648;9.910;2022-08-01T09:03:06;19.80;;;4.55;;
31652;SDS011;18261;53.648;9.910;2022-08-01T09:05:32;25.27;;;6.53;;
31652;SDS011;18261;53.648;9.910;2022-08-01T09:07:58;28.02;;;6.53;;
31652;SDS011;18261;53.648;9.910;2022-08-01T09:10:25;34.78;;;9.95;;
31652;SDS011;18261;53.648;9.910;2022-08-01T09:15:39;28.25;;;4.20;;
31652;SDS011;18261;53.648;9.910;2022-08-01T09:18:06;21.13;;;4.15;;
31652;SDS011;18261;53.648;9.910;2022-08-01T09:20:32;26.17;;;4.22;;
31652;SDS011;18261;53.648;9.910;2022-08-01T09:23:00;18.98;;;3.45;;
31652;SDS011;18261;53.648;9.910;2022-08-01T09:25:26;15.68;;;2.97;;
31652;SDS011;18261;53.648;9.910;2022-08-01T09:28:06;25.15;;;4.32;;
31652;SDS011;18261;53.648;9.910;2022-08-01T09:30:39;23.05;;;3.55;;
31652;SDS011;18261;53.648;9.910;2022-08-01T09:33:05;19.90;;;4.20;;
31652;SDS011;18261;53.648;9.910;2022-08-01T09:35:35;19.92;;;3.53;;
31652;SDS011;18261;53.648;9.910;2022-08-01T09:38:21;18.40;;;3.67;;
31652;SDS011;18261;53.648;9.910;2022-08-01T09:40:49;20.27;;;4.20;;
31652;SDS011;18261;53.648;9.910;2022-08-01T09:43:16;17.85;;;3.72;;
31652;SDS011;18261;53.648;9.910;2022-08-01T09:45:42;22.98;;;3.92;;
31652;SDS011;18261;53.648;9.910;2022-08-01T09:48:09;21.40;;;3.90;;
31652;SDS011;18261;53.648;9.910;2022-08-01T09:50:45;18.85;;;3.33;;
31652;SDS011;18261;53.648;9.910;2022-08-01T09:53:12;17.48;;;3.38;;
31652;SDS011;18261;53.648;9.910;2022-08-01T09:55:38;15.68;;;2.97;;
31652;SDS011;18261;53.648;9.910;2022-08-01T09:58:04;15.13;;;3.65;;
31652;SDS011;18261;53.648;9.910;2022-08-01T10:00:31;23.52;;;4.07;;
31652;SDS011;18261;53.648;9.910;2022-08-01T10:02:57;19.73;;;3.85;;
31652;SDS011;18261;53.648;9.910;2022-08-01T10:05:34;17.42;;;3.53;;
31652;SDS011;18261;53.648;9.910;2022-08-01T10:08:03;22.55;;;7.03;;
31652;SDS011;18261;53.648;9.910;2022-08-01T10:10:29;19.15;;;3.50;;
31652;SDS011;18261;53.648;9.910;2022-08-01T10:12:56;16.92;;;3.15;;
31652;SDS011;18261;53.648;9.910;2022-08-01T10:15:22;17.80;;;3.55;;
31652;SDS011;18261;53.648;9.910;2022-08-01T10:20:19;19.45;;;3.78;;
31652;SDS011;18261;53.648;9.910;2022-08-01T10:22:45;23.45;;;3.33;;
31652;SDS011;18261;53.648;9.910;2022-08-01T10:25:12;17.67;;;3.72;;
31652;SDS011;18261;53.648;9.910;2022-08-01T10:27:42;21.23;;;3.00;;
31652;SDS011;18261;53.648;9.910;2022-08-01T10:30:10;15.05;;;3.00;;
31652;SDS011;18261;53.648;9.910;2022-08-01T10:32:37;18.13;;;2.90;;
31652;SDS011;18261;53.648;9.910;2022-08-01T10:35:04;16.75;;;3.15;;
31652;SDS011;18261;53.648;9.910;2022-08-01T10:37:30;20.05;;;3.72;;
31652;SDS011;18261;53.648;9.910;2022-08-01T10:39:56;16.13;;;3.10;;
31652;SDS011;18261;53.648;9.910;2022-08-01T10:42:23;19.40;;;3.22;;
31652;SDS011;18261;53.648;9.910;2022-08-01T10:44:49;13.35;;;2.65;;
31652;SDS011;18261;53.648;9.910;2022-08-01T10:47:17;14.27;;;2.60;;
31652;SDS011;18261;53.648;9.910;2022-08-01T10:49:58;14.60;;;2.75;;
31652;SDS011;18261;53.648;9.910;2022-08-01T10:52:26;17.55;;;2.70;;
31652;SDS011;18261;53.648;9.910;2022-08-01T10:55:05;17.10;;;3.00;;
31652;SDS011;18261;53.648;9.910;2022-08-01T10:57:46;16.48;;;3.30;;
31652;SDS011;18261;53.648;9.910;2022-08-01T11:00:16;27.10;;;2.95;;
31652;SDS011;18261;53.648;9.910;2022-08-01T11:02:43;14.23;;;2.78;;
31652;SDS011;18261;53.648;9.910;2022-08-01T11:05:22;17.77;;;3.20;;
31652;SDS011;18261;53.648;9.910;2022-08-01T11:07:51;24.33;;;2.67;;
31652;SDS011;18261;53.648;9.910;2022-08-01T11:12:50;18.60;;;2.78;;
31652;SDS011;18261;53.648;9.910;2022-08-01T11:15:16;17.95;;;2.63;;
31652;SDS011;18261;53.648;9.910;2022-08-01T11:17:49;13.57;;;2.42;;
31652;SDS011;18261;53.648;9.910;2022-08-01T11:23:15;16.50;;;2.30;;
31652;SDS011;18261;53.648;9.910;2022-08-01T11:30:51;17.05;;;2.80;;
31652;SDS011;18261;53.648;9.910;2022-08-01T11:33:47;17.65;;;4.63;;
31652;SDS011;18261;53.648;9.910;2022-08-01T11:38:38;16.10;;;2.72;;
31652;SDS011;18261;53.648;9.910;2022-08-01T11:41:11;12.60;;;2.20;;
31652;SDS011;18261;53.648;9.910;2022-08-01T11:46:20;12.20;;;2.75;;
31652;SDS011;18261;53.648;9.910;2022-08-01T11:52:02;18.90;;;2.60;;
31652;SDS011;18261;53.648;9.910;2022-08-01T11:54:30;14.60;;;2.22;;
31652;SDS011;18261;53.648;9.910;2022-08-01T11:56:57;14.57;;;3.22;;
31652;SDS011;18261;53.648;9.910;2022-08-01T11:59:23;12.98;;;2.17;;
31652;SDS011;18261;53.648;9.910;2022-08-01T12:01:49;15.88;;;2.80;;
31652;SDS011;18261;53.648;9.910;2022-08-01T12:04:15;10.18;;;2.13;;
31652;SDS011;18261;53.648;9.910;2022-08-01T12:06:41;10.40;;;2.47;;
31652;SDS011;18261;53.648;9.910;2022-08-01T12:09:17;15.80;;;2.95;;
31652;SDS011;18261;53.648;9.910;2022-08-01T12:11:43;11.38;;;2.40;;
31652;SDS011;18261;53.648;9.910;2022-08-01T12:14:09;8.27;;;2.03;;
31652;SDS011;18261;53.648;9.910;2022-08-01T12:16:47;13.90;;;2.30;;
31652;SDS011;18261;53.648;9.910;2022-08-01T12:19:17;16.40;;;2.72;;
31652;SDS011;18261;53.648;9.910;2022-08-01T12:21:44;15.77;;;2.40;;
31652;SDS011;18261;53.648;9.910;2022-08-01T12:24:10;11.88;;;2.13;;
31652;SDS011;18261;53.648;9.910;2022-08-01T12:26:42;14.40;;;2.78;;
31652;SDS011;18261;53.648;9.910;2022-08-01T12:29:08;22.75;;;2.88;;
31652;SDS011;18261;53.648;9.910;2022-08-01T12:31:34;16.70;;;2.40;;
31652;SDS011;18261;53.648;9.910;2022-08-01T12:34:45;10.18;;;2.15;;
31652;SDS011;18261;53.648;9.910;2022-08-01T12:36:46;11.05;;;1.85;;
31652;SDS011;18261;53.648;9.910;2022-08-01T12:39:12;11.15;;;2.03;;
31652;SDS011;18261;53.648;9.910;2022-08-01T12:41:38;12.23;;;1.83;;
31652;SDS011;18261;53.648;9.910;2022-08-01T12:44:12;11.57;;;2.13;;
31652;SDS011;18261;53.648;9.910;2022-08-01T12:46:39;6.47;;;2.03;;
31652;SDS011;18261;53.648;9.910;2022-08-01T12:49:05;12.88;;;2.55;;
31652;SDS011;18261;53.648;9.910;2022-08-01T12:51:31;9.85;;;2.33;;
31652;SDS011;18261;53.648;9.910;2022-08-01T12:53:58;16.10;;;2.42;;
31652;SDS011;18261;53.648;9.910;2022-08-01T12:56:33;11.40;;;2.22;;
31652;SDS011;18261;53.648;9.910;2022-08-01T12:58:59;9.93;;;1.90;;
31652;SDS011;18261;53.648;9.910;2022-08-01T13:01:26;9.32;;;1.83;;
31652;SDS011;18261;53.648;9.910;2022-08-01T13:03:59;12.93;;;2.42;;
31652;SDS011;18261;53.648;9.910;2022-08-01T13:06:27;15.82;;;2.70;;
31652;SDS011;18261;53.648;9.910;2022-08-01T13:08:54;10.80;;;2.35;;
31652;SDS011;18261;53.648;9.910;2022-08-01T13:11:20;9.40;;;1.67;;
31652;SDS011;18261;53.648;9.910;2022-08-01T13:13:47;20.30;;;2.80;;
31652;SDS011;18261;53.648;9.910;2022-08-01T13:16:14;13.18;;;2.38;;
31652;SDS011;18261;53.648;9.910;2022-08-01T13:18:40;18.67;;;2.85;;
31652;SDS011;18261;53.648;9.910;2022-08-01T13:21:10;10.05;;;1.98;;
31652;SDS011;18261;53.648;9.910;2022-08-01T13:23:36;12.75;;;2.53;;
31652;SDS011;18261;53.648;9.910;2022-08-01T13:26:02;16.38;;;2.97;;
31652;SDS011;18261;53.648;9.910;2022-08-01T13:28:29;10.25;;;2.30;;
31652;SDS011;18261;53.648;9.910;2022-08-01T13:31:00;12.27;;;3.58;;
31652;SDS011;18261;53.648;9.910;2022-08-01T13:33:27;11.45;;;2.45;;
31652;SDS011;18261;53.648;9.910;2022-08-01T13:35:54;14.95;;;3.22;;
31652;SDS011;18261;53.648;9.910;2022-08-01T13:38:20;9.50;;;3.10;;
31652;SDS011;18261;53.648;9.910;2022-08-01T13:41:06;13.85;;;3.85;;
31652;SDS011;18261;53.648;9.910;2022-08-01T13:43:32;19.13;;;4.65;;
31652;SDS011;18261;53.648;9.910;2022-08-01T13:46:00;11.82;;;2.47;;
31652;SDS011;18261;53.648;9.910;2022-08-01T13:48:28;15.63;;;3.53;;
31652;SDS011;18261;53.648;9.910;2022-08-01T13:50:54;18.20;;;5.82;;
31652;SDS011;18261;53.648;9.910;2022-08-01T13:53:20;13.70;;;4.32;;
31652;SDS011;18261;53.648;9.910;2022-08-01T13:55:46;11.57;;;2.58;;
31652;SDS011;18261;53.648;9.910;2022-08-01T13:58:12;19.85;;;4.47;;
31652;SDS011;18261;53.648;9.910;2022-08-01T14:00:38;12.93;;;2.50;;
31652;SDS011;18261;53.648;9.910;2022-08-01T14:03:04;15.18;;;4.97;;
31652;SDS011;18261;53.648;9.910;2022-08-01T14:05:30;19.50;;;4.40;;
31652;SDS011;18261;53.648;9.910;2022-08-01T14:07:56;8.55;;;1.98;;
31652;SDS011;18261;53.648;9.910;2022-08-01T14:10:23;18.05;;;5.70;;
31652;SDS011;18261;53.648;9.910;2022-08-01T14:12:49;18.98;;;4.45;;
31652;SDS011;18261;53.648;9.910;2022-08-01T14:15:15;15.20;;;4.10;;
31652;SDS011;18261;53.648;9.910;2022-08-01T14:17:41;8.43;;;2.53;;
31652;SDS011;18261;53.648;9.910;2022-08-01T14:20:07;8.32;;;2.00;;
31652;SDS011;18261;53.648;9.910;2022-08-01T14:22:33;9.52;;;2.72;;
31652;SDS011;18261;53.648;9.910;2022-08-01T14:24:59;11.45;;;2.92;;
31652;SDS011;18261;53.648;9.910;2022-08-01T14:27:25;20.42;;;4.70;;
31652;SDS011;18261;53.648;9.910;2022-08-01T14:29:53;9.88;;;3.03;;
31652;SDS011;18261;53.648;9.910;2022-08-01T14:32:19;28.45;;;6.30;;
31652;SDS011;18261;53.648;9.910;2022-08-01T14:34:45;17.92;;;5.50;;
31652;SDS011;18261;53.648;9.910;2022-08-01T14:37:11;15.45;;;3.85;;
31652;SDS011;18261;53.648;9.910;2022-08-01T14:39:37;9.57;;;2.30;;
31652;SDS011;18261;53.648;9.910;2022-08-01T14:42:03;13.98;;;2.25;;
31652;SDS011;18261;53.648;9.910;2022-08-01T14:44:29;16.73;;;4.95;;
31652;SDS011;18261;53.648;9.910;2022-08-01T14:46:55;14.07;;;4.90;;
31652;SDS011;18261;53.648;9.910;2022-08-01T14:49:21;18.60;;;5.57;;
31652;SDS011;18261;53.648;9.910;2022-08-01T14:51:47;15.93;;;3.30;;
31652;SDS011;18261;53.648;9.910;2022-08-01T14:54:13;15.80;;;3.63;;
31652;SDS011;18261;53.648;9.910;2022-08-01T14:56:40;17.35;;;4.57;;
31652;SDS011;18261;53.648;9.910;2022-08-01T14:59:06;12.90;;;2.50;;
31652;SDS011;18261;53.648;9.910;2022-08-01T15:01:32;11.82;;;2.65;;
31652;SDS011;18261;53.648;9.910;2022-08-01T15:03:57;14.65;;;5.15;;
31652;SDS011;18261;53.648;9.910;2022-08-01T15:06:23;13.77;;;2.78;;
31652;SDS011;18261;53.648;9.910;2022-08-01T15:08:49;8.88;;;2.13;;
31652;SDS011;18261;53.648;9.910;2022-08-01T15:11:15;12.93;;;2.88;;